Time;durP1;ratioP1;P1;durP2;ratioP2;P2;SDS_P1;SDS_P2;PMS_P1;PMS_P2;Temp;Humidity;BMP_temperature;BMP_pressure;BME280_temperature;BME280_humidity;BME280_pressure;Samples;Min_cycle;Max_cycle;Signal;HPM_P1;HPM_P2
2023/10/24 00:00:55;;;;;;;6.50;5.97;;;12.70;99.90;;;;;;5091835;28;21122;-56
2023/10/24 00:03:21;;;;;;;9.43;6.57;;;12.90;99.90;;;;;;5092590;28;20196;-55
2023/10/24 00:05:48;;;;;;;7.63;6.23;;;12.90;99.90;;;;;;5087898;28;21098;-54
2023/10/24 00:08:13;;;;;;;8.53;6.57;;;12.90;99.90;;;;;;5083996;28;20260;-67
2023/10/24 00:10:39;;;;;;;8.20;6.17;;;12.70;99.90;;;;;;5089176;28;20238;-73
2023/10/24 00:13:04;;;;;;;8.80;6.43;;;12.30;99.90;;;;;;5090570;28;20196;-71
2023/10/24 00:15:30;;;;;;;7.40;6.67;;;12.50;99.90;;;;;;5090574;28;20220;-57
2023/10/24 00:17:55;;;;;;;8.77;6.73;;;12.30;99.90;;;;;;5090298;28;20601;-57
2023/10/24 00:20:21;;;;;;;7.43;6.73;;;12.40;99.90;;;;;;5091302;28;20279;-57
2023/10/24 00:22:46;;;;;;;7.80;6.70;;;12.50;99.90;;;;;;5090109;28;20755;-56
2023/10/24 00:25:13;;;;;;;6.93;6.30;;;12.60;99.90;;;;;;5092929;28;20284;-56
2023/10/24 00:27:39;;;;;;;8.20;6.83;;;12.60;99.90;;;;;;5087879;28;20192;-56
2023/10/24 00:30:05;;;;;;;7.17;6.47;;;12.60;99.90;;;;;;5091603;28;20236;-55
2023/10/24 00:32:31;;;;;;;6.13;5.57;;;12.70;99.90;;;;;;5091380;28;20214;-55
2023/10/24 00:34:56;;;;;;;8.37;6.80;;;12.70;99.90;;;;;;5089632;28;20718;-54
2023/10/24 00:37:22;;;;;;;7.80;7.10;;;12.70;99.90;;;;;;5092088;28;20199;-55
2023/10/24 00:39:47;;;;;;;9.47;6.50;;;12.70;99.90;;;;;;5086566;28;20202;-56
2023/10/24 00:42:13;;;;;;;9.30;7.00;;;12.70;99.90;;;;;;5088776;28;20199;-55
2023/10/24 00:44:38;;;;;;;7.33;6.63;;;12.60;99.90;;;;;;5079185;28;20265;-56
2023/10/24 00:47:04;;;;;;;12.87;7.97;;;12.70;99.90;;;;;;5087210;28;20198;-57
2023/10/24 00:49:30;;;;;;;7.97;6.80;;;12.60;99.90;;;;;;5089775;28;20309;-55
2023/10/24 00:51:57;;;;;;;9.30;7.10;;;12.50;99.90;;;;;;5084352;28;20228;-55
2023/10/24 00:54:23;;;;;;;10.47;7.63;;;12.40;99.90;;;;;;5090936;28;20447;-55
2023/10/24 00:56:51;;;;;;;8.93;7.13;;;12.30;99.90;;;;;;5089504;28;20743;-56
2023/10/24 00:59:19;;;;;;;10.30;6.73;;;12.20;99.90;;;;;;5091712;28;20570;-56
2023/10/24 01:01:44;;;;;;;8.07;6.93;;;12.40;99.90;;;;;;5093383;28;20210;-56
2023/10/24 01:04:11;;;;;;;8.00;7.20;;;12.50;99.90;;;;;;5095065;28;20207;-55
2023/10/24 01:06:37;;;;;;;7.53;6.73;;;12.60;99.90;;;;;;5089487;28;20205;-55
2023/10/24 01:09:03;;;;;;;7.40;6.80;;;12.60;99.90;;;;;;5089411;28;20723;-59
2023/10/24 01:11:28;;;;;;;9.00;7.30;;;12.60;99.90;;;;;;5095136;28;20559;-56
2023/10/24 01:13:56;;;;;;;9.87;7.87;;;12.50;99.90;;;;;;5097429;28;20203;-55
2023/10/24 01:16:22;;;;;;;11.17;6.87;;;12.60;99.90;;;;;;5093324;28;20227;-56
2023/10/24 01:18:47;;;;;;;7.00;6.40;;;12.60;99.90;;;;;;5095187;28;20623;-55
2023/10/24 01:21:13;;;;;;;8.37;6.87;;;12.60;99.90;;;;;;5094931;28;20191;-57
2023/10/24 01:23:40;;;;;;;8.30;6.60;;;12.70;99.90;;;;;;5089453;28;20200;-56
2023/10/24 01:26:07;;;;;;;7.07;6.37;;;12.70;99.90;;;;;;5090608;28;20209;-56
2023/10/24 01:28:33;;;;;;;9.07;7.20;;;12.80;99.90;;;;;;5095493;28;20255;-58
2023/10/24 01:30:58;;;;;;;8.83;6.93;;;12.70;99.90;;;;;;5096108;28;20673;-56
2023/10/24 01:33:24;;;;;;;7.57;6.70;;;12.70;99.90;;;;;;5094382;27;20220;-56
2023/10/24 01:35:49;;;;;;;12.13;7.17;;;12.80;99.90;;;;;;5090710;28;20228;-55
2023/10/24 01:38:15;;;;;;;12.20;7.00;;;12.90;99.90;;;;;;5094420;28;20226;-55
2023/10/24 01:40:40;;;;;;;8.27;7.03;;;12.80;99.90;;;;;;5089728;28;20539;-56
2023/10/24 01:43:06;;;;;;;8.73;6.40;;;12.80;99.90;;;;;;5093512;28;20300;-58
2023/10/24 01:45:32;;;;;;;8.63;6.67;;;12.70;99.90;;;;;;5101168;27;20281;-55
2023/10/24 01:47:58;;;;;;;9.83;7.27;;;12.70;99.90;;;;;;5088740;28;20197;-55
2023/10/24 01:50:23;;;;;;;8.70;6.97;;;12.80;99.90;;;;;;5093503;28;20206;-55
2023/10/24 01:52:49;;;;;;;11.33;6.67;;;12.60;99.90;;;;;;5094104;28;20240;-56
2023/10/24 01:55:14;;;;;;;10.07;7.07;;;12.70;99.90;;;;;;5090385;28;20208;-56
2023/10/24 01:57:40;;;;;;;11.40;8.00;;;12.40;99.90;;;;;;5094245;28;20252;-55
2023/10/24 02:00:06;;;;;;;10.17;6.90;;;12.50;99.90;;;;;;5089947;28;20688;-57
2023/10/24 02:02:32;;;;;;;7.50;6.70;;;12.40;99.90;;;;;;5091898;28;20474;-56
2023/10/24 02:04:57;;;;;;;15.10;7.53;;;12.60;99.90;;;;;;5090200;28;20224;-57
2023/10/24 02:07:23;;;;;;;9.63;7.13;;;12.60;99.90;;;;;;5094004;28;20214;-57
2023/10/24 02:09:50;;;;;;;8.73;7.83;;;12.50;99.90;;;;;;5092053;28;20742;-57
2023/10/24 02:12:15;;;;;;;9.77;7.37;;;12.60;99.90;;;;;;5093364;28;20284;-57
2023/10/24 02:14:41;;;;;;;10.30;6.90;;;12.50;99.90;;;;;;5093782;28;20350;-56
2023/10/24 02:17:07;;;;;;;10.13;7.83;;;12.60;99.90;;;;;;5089372;28;20219;-56
2023/10/24 02:19:32;;;;;;;7.23;6.50;;;12.50;99.90;;;;;;5091220;28;20206;-56
2023/10/24 02:21:58;;;;;;;9.33;7.67;;;12.70;99.90;;;;;;5086562;28;20603;-56
2023/10/24 02:24:23;;;;;;;8.03;7.23;;;12.60;99.90;;;;;;5090034;28;20791;-57
2023/10/24 02:26:49;;;;;;;10.63;7.13;;;12.60;99.90;;;;;;5087401;28;20202;-55
2023/10/24 02:29:14;;;;;;;15.20;7.67;;;12.60;99.90;;;;;;5093292;28;20199;-56
2023/10/24 02:31:40;;;;;;;8.23;7.00;;;12.40;99.90;;;;;;5089185;28;20231;-56
2023/10/24 02:34:05;;;;;;;12.40;7.53;;;12.20;99.90;;;;;;5089391;28;20295;-56
2023/10/24 02:36:31;;;;;;;12.40;7.87;;;12.30;99.90;;;;;;5084398;28;20242;-56
2023/10/24 02:38:56;;;;;;;10.50;7.70;;;12.40;99.90;;;;;;5084962;28;20204;-56
2023/10/24 02:41:22;;;;;;;7.50;6.77;;;12.50;99.90;;;;;;5087252;28;20201;-57
2023/10/24 02:43:48;;;;;;;8.53;7.40;;;12.70;99.90;;;;;;5082060;28;20299;-56
2023/10/24 02:46:13;;;;;;;10.83;7.57;;;12.80;99.90;;;;;;5092861;28;20192;-57
2023/10/24 02:48:39;;;;;;;11.93;7.43;;;12.80;99.90;;;;;;5087271;28;20200;-56
2023/10/24 02:51:04;;;;;;;12.17;8.67;;;12.70;99.90;;;;;;5087397;28;20214;-56
2023/10/24 02:53:30;;;;;;;11.50;7.77;;;12.70;99.90;;;;;;5086963;28;20279;-57
2023/10/24 02:56:00;;;;;;;8.47;7.53;;;12.60;99.90;;;;;;5092521;28;20240;-56
2023/10/24 02:58:25;;;;;;;7.50;6.77;;;12.70;99.90;;;;;;5092900;28;20203;-56
2023/10/24 03:00:51;;;;;;;11.83;7.77;;;12.70;99.90;;;;;;5084416;28;20575;-56
2023/10/24 03:03:16;;;;;;;9.97;7.73;;;12.60;99.90;;;;;;5086538;28;20197;-56
2023/10/24 03:05:42;;;;;;;7.20;6.50;;;12.50;99.90;;;;;;5086536;28;20197;-56
2023/10/24 03:08:08;;;;;;;11.27;8.47;;;12.40;99.90;;;;;;5088652;28;20199;-56
2023/10/24 03:10:40;;;;;;;11.20;7.47;;;12.30;99.90;;;;;;5092652;28;20225;-57
2023/10/24 03:13:06;;;;;;;9.10;7.93;;;12.30;99.90;;;;;;5091009;28;20210;-59
2023/10/24 03:15:33;;;;;;;11.57;7.97;;;12.40;99.90;;;;;;5087187;28;20236;-56
2023/10/24 03:17:59;;;;;;;9.07;8.17;;;12.50;99.90;;;;;;5084855;28;20199;-56
2023/10/24 03:20:26;;;;;;;11.33;8.47;;;12.50;99.90;;;;;;5088677;28;20279;-56
2023/10/24 03:22:51;;;;;;;11.97;8.30;;;12.50;99.90;;;;;;5088518;28;20260;-57
2023/10/24 03:25:17;;;;;;;10.67;7.73;;;12.70;99.90;;;;;;5087771;28;20199;-55
2023/10/24 03:27:42;;;;;;;10.27;8.27;;;12.40;99.90;;;;;;5094177;28;20198;-55
2023/10/24 03:30:08;;;;;;;10.67;8.10;;;12.20;99.90;;;;;;5090787;28;20215;-56
2023/10/24 03:32:34;;;;;;;13.07;8.50;;;12.00;99.90;;;;;;5089370;28;20384;-56
2023/10/24 03:34:59;;;;;;;11.23;7.80;;;11.90;99.90;;;;;;5092149;28;20219;-55
2023/10/24 03:37:24;;;;;;;11.10;8.20;;;12.00;99.90;;;;;;5092100;28;20215;-68
2023/10/24 03:39:50;;;;;;;13.10;8.77;;;11.80;99.90;;;;;;5091995;28;20688;-65
2023/10/24 03:42:16;;;;;;;10.40;8.70;;;11.90;99.90;;;;;;5093550;28;20281;-58
2023/10/24 03:44:41;;;;;;;14.57;8.70;;;11.90;99.90;;;;;;5085120;28;20211;-57
2023/10/24 03:47:07;;;;;;;10.67;8.03;;;11.90;99.90;;;;;;5087462;28;20680;-57
2023/10/24 03:49:33;;;;;;;13.27;9.13;;;11.90;99.90;;;;;;5088129;28;20199;-57
2023/10/24 03:51:59;;;;;;;9.07;8.17;;;12.10;99.90;;;;;;5092031;28;20200;-57
2023/10/24 03:54:25;;;;;;;10.37;8.40;;;12.30;99.90;;;;;;5092039;28;20250;-61
2023/10/24 03:56:50;;;;;;;11.37;7.47;;;12.40;99.90;;;;;;5090163;28;20216;-57
2023/10/24 03:59:16;;;;;;;12.47;7.60;;;12.40;99.90;;;;;;5091100;28;20213;-62
2023/10/24 04:01:41;;;;;;;13.77;7.97;;;12.40;99.90;;;;;;5089408;28;20250;-56
2023/10/24 04:04:07;;;;;;;10.07;8.40;;;12.20;99.90;;;;;;5091388;28;20205;-56
2023/10/24 04:06:35;;;;;;;8.57;6.90;;;12.20;99.90;;;;;;5086160;28;20233;-57
2023/10/24 04:09:04;;;;;;;8.60;7.70;;;12.20;99.90;;;;;;5087474;28;20201;-57
2023/10/24 04:11:31;;;;;;;11.87;7.83;;;12.20;99.90;;;;;;5091166;28;21002;-57
2023/10/24 04:13:58;;;;;;;19.33;8.53;;;12.30;99.90;;;;;;5091076;28;20194;-61
2023/10/24 04:16:23;;;;;;;11.20;9.20;;;12.40;99.90;;;;;;5084412;28;20224;-60
2023/10/24 04:18:49;;;;;;;9.90;8.30;;;12.30;99.90;;;;;;5088675;28;20582;-60
2023/10/24 04:21:15;;;;;;;12.17;8.27;;;12.30;99.90;;;;;;5090128;28;20252;-61
2023/10/24 04:23:41;;;;;;;12.97;8.43;;;12.20;99.90;;;;;;5088782;28;20207;-58
2023/10/24 04:26:06;;;;;;;12.97;8.70;;;12.10;99.90;;;;;;5084695;28;20563;-58
2023/10/24 04:28:32;;;;;;;11.43;8.10;;;12.00;99.90;;;;;;5089487;28;20218;-62
2023/10/24 04:30:57;;;;;;;9.37;8.43;;;12.20;99.90;;;;;;5090327;28;20234;-60
2023/10/24 04:33:23;;;;;;;10.23;7.77;;;12.00;99.90;;;;;;5092919;28;20212;-58
2023/10/24 04:35:50;;;;;;;10.97;7.70;;;11.90;99.90;;;;;;5091528;28;20245;-59
2023/10/24 04:38:16;;;;;;;14.37;10.27;;;12.00;99.90;;;;;;5094483;28;20184;-59
2023/10/24 04:40:42;;;;;;;14.77;8.77;;;12.00;99.90;;;;;;5084798;28;20661;-64
2023/10/24 04:43:09;;;;;;;14.20;8.60;;;12.00;99.90;;;;;;5089098;28;20192;-56
2023/10/24 04:45:38;;;;;;;12.20;9.10;;;12.10;99.90;;;;;;5088082;28;20206;-57
2023/10/24 04:48:04;;;;;;;10.20;8.10;;;12.00;99.90;;;;;;5094451;28;20191;-58
2023/10/24 04:50:30;;;;;;;15.17;9.47;;;12.10;99.90;;;;;;5088403;28;20204;-56
2023/10/24 04:52:56;;;;;;;10.27;8.70;;;12.20;99.90;;;;;;5087849;28;20217;-58
2023/10/24 04:55:22;;;;;;;8.90;7.60;;;12.30;99.90;;;;;;5094732;27;20224;-57
2023/10/24 04:57:49;;;;;;;11.53;9.50;;;12.10;99.90;;;;;;5091138;28;20211;-56
2023/10/24 05:00:15;;;;;;;10.03;8.87;;;12.00;99.90;;;;;;5095046;28;20243;-57
2023/10/24 05:02:42;;;;;;;9.97;8.97;;;12.00;99.90;;;;;;5090609;28;20222;-59
2023/10/24 05:05:09;;;;;;;10.80;8.63;;;12.00;99.90;;;;;;5093331;28;20824;-66
2023/10/24 05:07:35;;;;;;;15.07;10.77;;;11.90;99.90;;;;;;5092775;28;20244;-63
2023/10/24 05:10:00;;;;;;;10.67;8.67;;;12.00;99.90;;;;;;5086813;28;20199;-63
2023/10/24 05:12:26;;;;;;;10.40;8.83;;;11.70;99.90;;;;;;5088355;28;20705;-64
2023/10/24 05:14:51;;;;;;;12.00;9.80;;;11.70;99.90;;;;;;5089296;28;20275;-70
2023/10/24 05:17:17;;;;;;;13.53;9.97;;;11.90;99.90;;;;;;5091191;28;20203;-56
2023/10/24 05:19:42;;;;;;;12.27;10.03;;;11.80;99.90;;;;;;5085551;28;20199;-57
2023/10/24 05:22:10;;;;;;;12.10;8.90;;;12.00;99.90;;;;;;5089150;28;20286;-59
2023/10/24 05:24:37;;;;;;;12.73;8.87;;;12.00;99.90;;;;;;5090393;28;20337;-58
2023/10/24 05:27:03;;;;;;;12.30;9.00;;;12.00;99.90;;;;;;5085647;28;20535;-58
2023/10/24 05:29:31;;;;;;;10.83;9.63;;;11.90;99.90;;;;;;5090574;28;20533;-57
2023/10/24 05:31:56;;;;;;;10.27;9.17;;;12.00;99.90;;;;;;5088577;28;20303;-56
2023/10/24 05:34:22;;;;;;;14.17;9.00;;;12.00;99.90;;;;;;5092426;28;20198;-57
2023/10/24 05:36:49;;;;;;;11.40;9.00;;;11.70;99.90;;;;;;5086114;27;20243;-56
2023/10/24 05:39:15;;;;;;;11.97;9.50;;;11.80;99.90;;;;;;5092471;28;20222;-57
2023/10/24 05:41:41;;;;;;;10.77;8.50;;;11.70;99.90;;;;;;5090037;28;20203;-58
2023/10/24 05:44:06;;;;;;;10.97;8.90;;;11.80;99.90;;;;;;5086450;28;20424;-57
2023/10/24 05:46:32;;;;;;;12.03;9.60;;;11.90;99.90;;;;;;5092792;28;20206;-57
2023/10/24 05:48:58;;;;;;;16.13;8.93;;;11.80;99.90;;;;;;5086500;28;20852;-56
2023/10/24 05:51:27;;;;;;;14.33;8.50;;;11.80;99.90;;;;;;5087906;28;20225;-56
2023/10/24 05:53:53;;;;;;;10.13;9.07;;;11.60;99.90;;;;;;5084896;28;20196;-56
2023/10/24 05:56:19;;;;;;;12.13;9.33;;;11.60;99.90;;;;;;5089873;28;20302;-57
2023/10/24 05:58:45;;;;;;;13.03;9.07;;;11.60;99.90;;;;;;5096365;28;20216;-56
2023/10/24 06:01:10;;;;;;;11.73;9.37;;;11.60;99.90;;;;;;5094256;27;20278;-56
2023/10/24 06:03:36;;;;;;;9.53;8.53;;;11.70;99.90;;;;;;5094590;28;20206;-56
2023/10/24 06:06:01;;;;;;;14.43;10.00;;;11.80;99.90;;;;;;5090320;28;20202;-56
2023/10/24 06:08:27;;;;;;;10.57;8.63;;;11.70;99.90;;;;;;5093805;28;20240;-56
2023/10/24 06:10:59;;;;;;;14.33;9.03;;;11.70;99.90;;;;;;5089944;28;20223;-56
2023/10/24 06:13:25;;;;;;;12.40;8.73;;;11.70;99.90;;;;;;5087133;28;20208;-56
2023/10/24 06:15:51;;;;;;;11.00;9.37;;;11.60;99.90;;;;;;5089037;28;20238;-57
2023/10/24 06:18:17;;;;;;;10.27;9.00;;;11.50;99.90;;;;;;5093078;28;20750;-56
2023/10/24 06:20:43;;;;;;;15.03;9.47;;;11.70;99.90;;;;;;5093866;28;20505;-56
2023/10/24 06:23:10;;;;;;;15.43;9.87;;;11.60;99.90;;;;;;5085515;28;20696;-57
2023/10/24 06:25:40;;;;;;;14.43;10.27;;;11.60;99.90;;;;;;5089894;28;20260;-56
2023/10/24 06:28:06;;;;;;;13.70;10.00;;;11.60;99.90;;;;;;5091169;28;20189;-56
2023/10/24 06:30:32;;;;;;;14.27;9.77;;;11.60;99.90;;;;;;5086760;28;21025;-56
2023/10/24 06:32:58;;;;;;;16.20;9.70;;;11.60;99.90;;;;;;5089678;28;20223;-57
2023/10/24 06:35:23;;;;;;;12.67;8.93;;;11.50;99.90;;;;;;5090538;28;20386;-57
2023/10/24 06:37:49;;;;;;;10.27;9.17;;;11.70;99.90;;;;;;5088871;28;20219;-57
2023/10/24 06:40:14;;;;;;;17.53;10.00;;;11.60;99.90;;;;;;5087555;28;20303;-56
2023/10/24 06:42:40;;;;;;;14.53;9.37;;;11.70;99.90;;;;;;5089303;28;20206;-57
2023/10/24 06:45:07;;;;;;;10.63;9.33;;;11.70;99.90;;;;;;5085719;28;20232;-57
2023/10/24 06:47:32;;;;;;;15.30;9.90;;;11.60;99.90;;;;;;5084755;28;20217;-57
2023/10/24 06:49:58;;;;;;;10.57;9.43;;;11.80;99.90;;;;;;5091579;28;20202;-56
2023/10/24 06:52:23;;;;;;;9.83;8.43;;;11.80;99.90;;;;;;5088922;28;20624;-57
2023/10/24 06:54:49;;;;;;;15.73;9.10;;;11.90;99.90;;;;;;5089103;27;20199;-56
2023/10/24 06:57:14;;;;;;;12.80;9.63;;;11.90;99.90;;;;;;5087563;28;20281;-57
2023/10/24 06:59:40;;;;;;;14.47;8.97;;;11.90;99.90;;;;;;5089966;28;20209;-58
2023/10/24 07:02:06;;;;;;;12.60;9.87;;;11.90;99.90;;;;;;5094887;28;20203;-62
2023/10/24 07:04:31;;;;;;;12.27;8.67;;;11.90;99.90;;;;;;5089048;28;20196;-57
2023/10/24 07:06:57;;;;;;;11.93;9.63;;;12.00;99.90;;;;;;5084405;28;20215;-56
2023/10/24 07:09:23;;;;;;;12.60;9.00;;;12.10;99.90;;;;;;5088624;28;20213;-56
2023/10/24 07:11:48;;;;;;;14.67;9.27;;;12.10;99.90;;;;;;5089576;28;20222;-55
2023/10/24 07:14:13;;;;;;;17.23;9.37;;;12.10;99.90;;;;;;5101704;28;20191;-57
2023/10/24 07:16:39;;;;;;;12.20;8.67;;;12.10;99.90;;;;;;5082826;28;20573;-56
2023/10/24 07:19:04;;;;;;;13.73;10.20;;;12.10;99.90;;;;;;5100542;28;20256;-56
2023/10/24 07:21:30;;;;;;;9.60;8.70;;;12.20;99.90;;;;;;5102548;28;20206;-55
2023/10/24 07:23:58;;;;;;;14.67;9.30;;;12.30;99.90;;;;;;5102567;28;20722;-56
2023/10/24 07:26:23;;;;;;;10.90;8.63;;;12.40;99.90;;;;;;5100903;28;20584;-56
2023/10/24 07:28:49;;;;;;;11.70;9.53;;;12.10;99.90;;;;;;5101580;28;20707;-57
2023/10/24 07:31:14;;;;;;;13.53;9.37;;;12.10;99.90;;;;;;5084253;28;20271;-57
2023/10/24 07:33:41;;;;;;;13.20;9.37;;;12.20;99.90;;;;;;5095878;28;20863;-56
2023/10/24 07:36:07;;;;;;;11.83;9.70;;;12.30;99.90;;;;;;5100785;28;20311;-63
2023/10/24 07:38:33;;;;;;;12.10;9.60;;;12.10;99.90;;;;;;5101039;28;20375;-64
2023/10/24 07:40:59;;;;;;;11.00;8.67;;;12.20;99.90;;;;;;5084802;28;20305;-56
2023/10/24 07:43:25;;;;;;;11.90;7.87;;;12.30;99.90;;;;;;5101803;28;20226;-57
2023/10/24 07:45:51;;;;;;;12.20;9.43;;;12.30;99.90;;;;;;5098354;28;20614;-62
2023/10/24 07:48:17;;;;;;;11.53;9.37;;;12.30;99.90;;;;;;5101641;28;20191;-58
2023/10/24 07:50:52;;;;;;;12.40;9.17;;;12.20;99.90;;;;;;5102527;28;20259;-58
2023/10/24 07:53:22;;;;;;;15.47;9.27;;;12.30;99.90;;;;;;5102434;28;20228;-67
2023/10/24 07:55:48;;;;;;;11.80;8.77;;;12.40;99.90;;;;;;5087999;28;20282;-57
2023/10/24 07:58:16;;;;;;;16.47;8.97;;;12.30;99.90;;;;;;5101767;28;20192;-58
2023/10/24 08:00:43;;;;;;;9.63;8.63;;;12.40;99.90;;;;;;5101690;28;20688;-65
2023/10/24 08:03:13;;;;;;;13.03;8.07;;;12.50;99.90;;;;;;5101469;28;20203;-59
2023/10/24 08:05:38;;;;;;;16.13;9.80;;;12.30;99.90;;;;;;5088768;28;20214;-59
2023/10/24 08:08:04;;;;;;;17.37;9.23;;;12.00;99.90;;;;;;5094353;28;20198;-59
2023/10/24 08:10:31;;;;;;;12.10;9.37;;;12.10;99.90;;;;;;5099794;28;20197;-58
2023/10/24 08:12:58;;;;;;;10.33;9.23;;;12.10;99.90;;;;;;5101749;28;20196;-65
2023/10/24 08:15:23;;;;;;;12.30;9.73;;;12.30;99.90;;;;;;5090147;28;20231;-60
2023/10/24 08:17:49;;;;;;;11.43;8.37;;;12.40;99.90;;;;;;5101219;28;20768;-62
2023/10/24 08:20:14;;;;;;;15.73;8.70;;;12.60;99.90;;;;;;5089517;28;20554;-62
2023/10/24 08:22:40;;;;;;;10.97;9.13;;;12.60;99.90;;;;;;5087196;28;20665;-62
2023/10/24 08:25:05;;;;;;;14.50;9.70;;;12.60;99.90;;;;;;5082817;28;20203;-63
2023/10/24 08:27:31;;;;;;;10.17;8.33;;;12.60;99.90;;;;;;5089315;28;20277;-57
2023/10/24 08:29:56;;;;;;;13.87;9.63;;;12.30;99.90;;;;;;5091533;28;20818;-60
2023/10/24 08:32:22;;;;;;;12.07;9.17;;;12.40;99.90;;;;;;5084722;28;20338;-60
2023/10/24 08:34:47;;;;;;;11.03;9.53;;;12.30;99.90;;;;;;5089914;28;20674;-64
2023/10/24 08:37:13;;;;;;;12.90;9.37;;;12.30;99.90;;;;;;5087322;28;20566;-59
2023/10/24 08:39:38;;;;;;;11.37;8.50;;;12.20;99.90;;;;;;5090317;28;20199;-59
2023/10/24 08:42:04;;;;;;;12.63;10.03;;;12.40;99.90;;;;;;5083650;28;20292;-59
2023/10/24 08:44:31;;;;;;;16.63;9.87;;;12.20;99.90;;;;;;5085813;28;20670;-59
2023/10/24 08:46:57;;;;;;;10.07;8.77;;;12.30;99.90;;;;;;5085535;28;20498;-57
2023/10/24 08:49:23;;;;;;;11.43;10.20;;;12.40;99.90;;;;;;5087180;28;20643;-59
2023/10/24 08:51:49;;;;;;;13.53;10.17;;;12.60;99.90;;;;;;5088363;28;20751;-60
2023/10/24 08:54:14;;;;;;;14.23;11.03;;;12.70;99.90;;;;;;5088820;28;20197;-60
2023/10/24 08:56:41;;;;;;;11.33;10.17;;;12.60;99.90;;;;;;5087166;28;20956;-67
2023/10/24 08:59:09;;;;;;;11.13;10.00;;;12.60;99.90;;;;;;5085583;28;20194;-59
2023/10/24 09:01:40;;;;;;;10.60;9.47;;;12.70;99.90;;;;;;5090991;28;20210;-64
2023/10/24 09:04:06;;;;;;;13.87;9.57;;;12.80;99.90;;;;;;5082776;28;20219;-62
2023/10/24 09:06:36;;;;;;;10.67;8.67;;;12.80;99.90;;;;;;5083663;28;20662;-59
2023/10/24 09:09:02;;;;;;;16.93;9.47;;;12.90;99.90;;;;;;5091183;28;20592;-71
2023/10/24 09:11:53;;;;;;;14.17;8.90;;;12.90;99.90;;;;;;5091800;28;20202;-65
2023/10/24 09:14:20;;;;;;;15.53;9.73;;;12.90;99.90;;;;;;5082926;28;20221;-64
2023/10/24 09:16:53;;;;;;;12.17;9.57;;;13.00;99.90;;;;;;5090621;28;20230;-63
2023/10/24 09:19:18;;;;;;;15.03;9.87;;;13.10;99.90;;;;;;5085734;28;20200;-67
2023/10/24 09:21:44;;;;;;;10.83;8.50;;;13.20;99.90;;;;;;5088011;28;20258;-57
2023/10/24 09:24:13;;;;;;;10.80;9.17;;;13.20;99.90;;;;;;5087961;28;20275;-57
2023/10/24 09:26:39;;;;;;;16.77;10.40;;;13.10;99.90;;;;;;5087000;28;20204;-59
2023/10/24 09:29:07;;;;;;;13.30;9.53;;;12.90;99.90;;;;;;5095062;28;20195;-58
2023/10/24 09:31:33;;;;;;;14.53;10.07;;;13.00;99.90;;;;;;5090080;28;20269;-60
2023/10/24 09:33:59;;;;;;;14.40;10.87;;;13.20;99.90;;;;;;5090442;27;20675;-59
2023/10/24 09:36:25;;;;;;;10.40;9.20;;;13.00;99.90;;;;;;5087840;28;20205;-58
2023/10/24 09:38:52;;;;;;;17.47;9.33;;;13.00;99.90;;;;;;5092094;28;20203;-59
2023/10/24 09:41:18;;;;;;;12.47;9.63;;;13.20;99.90;;;;;;5094816;28;20235;-58
2023/10/24 09:43:48;;;;;;;10.93;9.43;;;13.40;99.90;;;;;;5085915;28;20195;-58
2023/10/24 09:46:22;;;;;;;11.80;9.47;;;13.00;99.90;;;;;;5090871;28;20260;-59
2023/10/24 09:48:50;;;;;;;13.40;10.47;;;13.10;99.90;;;;;;5086547;28;20200;-59
2023/10/24 09:51:19;;;;;;;19.77;9.67;;;13.10;99.90;;;;;;5096212;28;20207;-59
2023/10/24 09:53:45;;;;;;;11.53;9.10;;;13.30;99.90;;;;;;5087708;28;20193;-58
2023/10/24 09:56:12;;;;;;;14.23;10.10;;;13.30;99.90;;;;;;5085308;28;20219;-58
2023/10/24 09:58:41;;;;;;;13.87;9.47;;;13.40;99.90;;;;;;5089388;28;20208;-59
2023/10/24 10:01:09;;;;;;;12.07;8.77;;;13.30;99.90;;;;;;5092612;28;20224;-58
2023/10/24 10:03:35;;;;;;;14.43;9.73;;;13.40;99.90;;;;;;5093813;28;20380;-60
2023/10/24 10:06:06;;;;;;;10.83;9.47;;;13.30;99.90;;;;;;5089719;27;20584;-58
2023/10/24 10:08:36;;;;;;;10.80;9.10;;;13.30;99.90;;;;;;5093204;28;20922;-58
2023/10/24 10:11:06;;;;;;;15.53;9.57;;;13.00;99.90;;;;;;5093883;28;20902;-59
2023/10/24 10:13:52;;;;;;;11.60;9.00;;;13.10;99.90;;;;;;5086881;28;20522;-65
2023/10/24 10:16:33;;;;;;;14.33;9.33;;;13.30;99.90;;;;;;5087192;28;20273;-57
2023/10/24 10:19:28;;;;;;;14.03;10.40;;;13.50;99.90;;;;;;5094451;28;20278;-76
2023/10/24 10:22:20;;;;;;;11.17;9.50;;;12.90;99.90;;;;;;5085696;28;20693;-60
2023/10/24 10:25:16;;;;;;;13.47;9.93;;;12.90;99.90;;;;;;5085169;28;20571;-70
2023/10/24 10:28:08;;;;;;;13.30;10.87;;;13.00;99.90;;;;;;5090291;28;20676;-60
2023/10/24 10:30:50;;;;;;;12.23;9.67;;;13.10;99.90;;;;;;5085574;28;20210;-67
2023/10/24 10:33:19;;;;;;;12.17;10.43;;;13.10;99.90;;;;;;5093225;28;20197;-59
2023/10/24 10:35:55;;;;;;;12.53;9.80;;;13.10;99.90;;;;;;5088752;28;20983;-61
2023/10/24 10:38:33;;;;;;;12.20;9.30;;;13.20;99.90;;;;;;5091223;28;20200;-62
2023/10/24 10:41:22;;;;;;;13.20;8.90;;;13.20;99.90;;;;;;5086317;28;20192;-60
2023/10/24 10:43:53;;;;;;;12.73;9.40;;;13.30;99.90;;;;;;5087875;28;20604;-61
2023/10/24 10:46:20;;;;;;;13.83;9.47;;;13.30;99.90;;;;;;5086659;28;20189;-60
2023/10/24 10:48:49;;;;;;;15.50;9.77;;;13.30;99.90;;;;;;5085350;28;20288;-60
2023/10/24 10:51:22;;;;;;;14.97;9.63;;;13.40;99.90;;;;;;5103441;27;20215;-60
2023/10/24 10:54:02;;;;;;;15.13;9.87;;;13.50;99.90;;;;;;5090365;28;20893;-60
2023/10/24 10:56:31;;;;;;;15.27;9.40;;;13.60;99.90;;;;;;5084823;28;20223;-60
2023/10/24 10:59:11;;;;;;;13.70;10.27;;;13.40;99.90;;;;;;5085641;28;20207;-70
2023/10/24 11:02:09;;;;;;;15.50;9.37;;;13.70;99.90;;;;;;5089968;28;20230;-60
2023/10/24 11:04:35;;;;;;;12.70;10.63;;;13.50;99.90;;;;;;5088029;28;20212;-60
2023/10/24 11:07:03;;;;;;;12.47;10.40;;;13.60;99.90;;;;;;5088550;28;20674;-61
2023/10/24 11:09:36;;;;;;;12.93;10.97;;;13.70;99.90;;;;;;5091999;28;20208;-60
2023/10/24 11:12:20;;;;;;;11.03;9.67;;;13.70;99.90;;;;;;5091936;27;20296;-60
2023/10/24 11:15:13;;;;;;;12.30;10.03;;;13.70;99.90;;;;;;5085007;28;20231;-61
2023/10/24 11:17:39;;;;;;;11.90;10.57;;;13.70;99.90;;;;;;5070018;28;20623;-60
2023/10/24 11:20:06;;;;;;;15.20;10.57;;;13.90;99.90;;;;;;5092495;28;20207;-60
2023/10/24 11:22:32;;;;;;;15.37;10.70;;;14.00;99.90;;;;;;5092134;28;20275;-60
2023/10/24 11:25:07;;;;;;;13.23;9.97;;;14.00;99.90;;;;;;5088641;28;20227;-58
2023/10/24 11:27:33;;;;;;;11.73;10.23;;;14.00;99.90;;;;;;5085361;28;20223;-61
2023/10/24 11:30:00;;;;;;;14.77;11.20;;;14.20;99.90;;;;;;5092130;28;20967;-60
2023/10/24 11:32:25;;;;;;;18.13;10.50;;;13.80;99.90;;;;;;5087474;28;20663;-60
2023/10/24 11:34:51;;;;;;;14.17;10.80;;;13.80;99.90;;;;;;5091852;28;20261;-61
2023/10/24 11:37:16;;;;;;;14.20;10.93;;;14.00;99.90;;;;;;5081362;28;20209;-64
2023/10/24 11:39:42;;;;;;;11.40;10.17;;;14.10;99.90;;;;;;5085353;28;20314;-58
2023/10/24 11:42:08;;;;;;;13.67;9.40;;;14.10;99.90;;;;;;5086514;28;20197;-59
2023/10/24 11:44:33;;;;;;;13.10;10.07;;;14.20;99.90;;;;;;5086426;28;20211;-66
2023/10/24 11:46:59;;;;;;;13.30;10.23;;;14.20;99.90;;;;;;5085672;28;20782;-72
2023/10/24 11:49:45;;;;;;;12.30;9.30;;;14.20;99.90;;;;;;5082968;28;20229;-69
2023/10/24 11:52:11;;;;;;;12.37;10.57;;;14.00;99.90;;;;;;5085142;28;20197;-67
2023/10/24 11:54:39;;;;;;;14.63;9.90;;;14.00;99.90;;;;;;5086437;28;20731;-59
2023/10/24 11:57:05;;;;;;;12.60;9.47;;;14.30;99.90;;;;;;5083469;28;20209;-60
2023/10/24 11:59:35;;;;;;;13.60;10.00;;;14.10;99.90;;;;;;5089869;28;20682;-67
2023/10/24 12:02:03;;;;;;;16.67;10.00;;;14.20;99.90;;;;;;5084213;28;20331;-67
2023/10/24 12:04:30;;;;;;;13.53;9.47;;;14.40;99.90;;;;;;5093101;28;20204;-69
2023/10/24 12:07:03;;;;;;;14.13;9.93;;;14.50;99.90;;;;;;5090018;28;20748;-67
2023/10/24 12:09:33;;;;;;;21.13;10.57;;;14.40;99.90;;;;;;5091932;28;20215;-72
2023/10/24 12:12:00;;;;;;;14.67;10.83;;;14.40;99.90;;;;;;5084666;28;20310;-63
2023/10/24 12:14:26;;;;;;;12.40;10.77;;;14.40;99.90;;;;;;5081097;28;20290;-59
2023/10/24 12:16:56;;;;;;;14.10;10.23;;;14.50;99.90;;;;;;5085584;28;20338;-66
2023/10/24 12:19:22;;;;;;;22.30;12.23;;;14.30;99.90;;;;;;5089285;28;20732;-60
2023/10/24 12:21:47;;;;;;;17.17;10.83;;;14.50;99.90;;;;;;5084863;28;20896;-59
2023/10/24 12:27:05;;;;;;;13.87;9.67;;;14.60;99.90;;;;;;5011461;28;20231;-59
2023/10/24 12:29:31;;;;;;;18.17;10.43;;;14.40;99.90;;;;;;5009676;28;20202;-58
2023/10/24 12:31:57;;;;;;;16.57;11.43;;;14.40;99.90;;;;;;5009160;28;20953;-59
2023/10/24 12:34:23;;;;;;;18.30;10.23;;;14.40;99.90;;;;;;5006382;28;20206;-58
2023/10/24 12:36:51;;;;;;;12.03;9.93;;;14.40;99.90;;;;;;5009012;28;20223;-58
2023/10/24 12:39:17;;;;;;;18.67;11.10;;;14.30;99.90;;;;;;5006628;28;20199;-58
2023/10/24 12:41:43;;;;;;;17.37;10.63;;;13.90;99.90;;;;;;5006305;28;20199;-61